Samos International Airport

Airport
ICAO code: 
LGSM
IATA Code: 
SMI
Summary
ICAO Region: 
EUR
Territory: 
Location: 
Pythagorio, North Aegean
Serving: 
Samos
Elevation: 
19 ft
Coordinates: 
Aerial View: 
37° 41' 21.876" N, 26° 54' 41.328" E
Metar
Observation
LGSM 191750Z 02011G21KT CAVOK 19/06 Q1018
Station
Samos Airport
Date/Time
2022-05-19 17:50:00
Wind direction
20°
Wind speed
11 kts
Lowest cloud amount
clouds and visibility OK
Temperature
19°C
Dew point
6°C
Humidity
42%
QNH
1018 hPa
Weather condition
n/a

Samos International Airport is an airport on Samos Island, Greece.

Climatology

Warm mediterranean climate (Köppen climate classification Csa)

Runways

Designator Length Width Surface Rops
9/27 2044 45 ASP Yes/Yes
Airport map: 
Aerial View: 

SKYbrary Partners:

Safety knowledge contributed by: